sensor_id;sensor_type;location;lat;lon;timestamp;P1;durP1;ratioP1;P2;durP2;ratioP2
61627;SDS011;55193;52.102;5.242;2022-09-03T00:00:54;3.1;;;1.8;;
61627;SDS011;55193;52.102;5.242;2022-09-03T00:04:18;2.7;;;1.8;;
61627;SDS011;55193;52.102;5.242;2022-09-03T00:06:06;6.3;;;1.9;;
61627;SDS011;55193;52.102;5.242;2022-09-03T00:07:50;4.0;;;2.0;;
61627;SDS011;55193;52.102;5.242;2022-09-03T00:09:35;4.1;;;2.21;;
61627;SDS011;55193;52.102;5.242;2022-09-03T00:11:18;4.8;;;1.8;;
61627;SDS011;55193;52.102;5.242;2022-09-03T00:14:40;3.1;;;1.9;;
61627;SDS011;55193;52.102;5.242;2022-09-03T00:16:25;4.1;;;1.7;;
61627;SDS011;55193;52.102;5.242;2022-09-03T00:18:16;3.4;;;1.9;;
61627;SDS011;55193;52.102;5.242;2022-09-03T00:19:57;3.3;;;1.9;;
61627;SDS011;55193;52.102;5.242;2022-09-03T00:21:42;4.0;;;1.9;;
61627;SDS011;55193;52.102;5.242;2022-09-03T00:25:06;2.9;;;2.0;;
61627;SDS011;55193;52.102;5.242;2022-09-03T00:26:49;5.0;;;2.21;;
61627;SDS011;55193;52.102;5.242;2022-09-03T00:28:33;4.3;;;2.0;;
61627;SDS011;55193;52.102;5.242;2022-09-03T00:30:16;5.7;;;2.1;;
61627;SDS011;55193;52.102;5.242;2022-09-03T00:33:37;4.1;;;2.0;;
61627;SDS011;55193;52.102;5.242;2022-09-03T00:35:18;4.0;;;1.9;;
61627;SDS011;55193;52.102;5.242;2022-09-03T00:37:02;2.8;;;1.8;;
61627;SDS011;55193;52.102;5.242;2022-09-03T00:38:39;3.9;;;2.21;;
61627;SDS011;55193;52.102;5.242;2022-09-03T00:42:21;6.2;;;2.1;;
61627;SDS011;55193;52.102;5.242;2022-09-03T00:44:26;4.91;;;2.0;;
61627;SDS011;55193;52.102;5.242;2022-09-03T00:47:01;3.8;;;1.9;;
61627;SDS011;55193;52.102;5.242;2022-09-03T00:50:49;4.3;;;2.0;;
61627;SDS011;55193;52.102;5.242;2022-09-03T00:52:41;2.5;;;1.8;;
61627;SDS011;55193;52.102;5.242;2022-09-03T00:54:31;2.9;;;1.8;;
61627;SDS011;55193;52.102;5.242;2022-09-03T00:56:19;2.6;;;2.0;;
61627;SDS011;55193;52.102;5.242;2022-09-03T00:58:11;3.6;;;1.8;;
61627;SDS011;55193;52.102;5.242;2022-09-03T01:00:04;4.41;;;2.0;;
61627;SDS011;55193;52.102;5.242;2022-09-03T01:01:46;3.0;;;2.0;;
61627;SDS011;55193;52.102;5.242;2022-09-03T01:03:35;5.4;;;1.8;;
61627;SDS011;55193;52.102;5.242;2022-09-03T01:08:15;3.4;;;1.8;;
61627;SDS011;55193;52.102;5.242;2022-09-03T01:10:09;3.6;;;2.1;;
61627;SDS011;55193;52.102;5.242;2022-09-03T01:12:00;2.4;;;1.9;;
61627;SDS011;55193;52.102;5.242;2022-09-03T01:15:33;2.6;;;1.9;;
61627;SDS011;55193;52.102;5.242;2022-09-03T01:17:22;3.6;;;1.8;;
61627;SDS011;55193;52.102;5.242;2022-09-03T01:19:16;3.0;;;1.9;;
61627;SDS011;55193;52.102;5.242;2022-09-03T01:21:17;5.0;;;1.8;;
61627;SDS011;55193;52.102;5.242;2022-09-03T01:23:18;2.31;;;1.7;;
61627;SDS011;55193;52.102;5.242;2022-09-03T01:26:33;2.7;;;1.8;;
61627;SDS011;55193;52.102;5.242;2022-09-03T01:30:17;3.8;;;1.9;;
61627;SDS011;55193;52.102;5.242;2022-09-03T01:31:58;4.2;;;2.1;;
61627;SDS011;55193;52.102;5.242;2022-09-03T01:33:43;2.9;;;1.7;;
61627;SDS011;55193;52.102;5.242;2022-09-03T01:35:29;4.5;;;1.9;;
61627;SDS011;55193;52.102;5.242;2022-09-03T01:37:14;3.6;;;1.9;;
61627;SDS011;55193;52.102;5.242;2022-09-03T01:39:06;2.8;;;1.9;;
61627;SDS011;55193;52.102;5.242;2022-09-03T01:42:45;3.7;;;1.7;;
61627;SDS011;55193;52.102;5.242;2022-09-03T01:44:40;3.5;;;1.8;;
61627;SDS011;55193;52.102;5.242;2022-09-03T01:46:32;3.5;;;1.8;;
61627;SDS011;55193;52.102;5.242;2022-09-03T01:48:18;7.1;;;1.8;;
61627;SDS011;55193;52.102;5.242;2022-09-03T01:50:09;3.7;;;1.8;;
61627;SDS011;55193;52.102;5.242;2022-09-03T01:51:58;2.7;;;1.7;;
61627;SDS011;55193;52.102;5.242;2022-09-03T01:53:53;2.4;;;1.7;;
61627;SDS011;55193;52.102;5.242;2022-09-03T01:56:27;3.0;;;1.9;;
61627;SDS011;55193;52.102;5.242;2022-09-03T01:58:20;3.5;;;1.8;;
61627;SDS011;55193;52.102;5.242;2022-09-03T02:00:06;3.9;;;1.6;;
61627;SDS011;55193;52.102;5.242;2022-09-03T02:03:31;3.3;;;1.9;;
61627;SDS011;55193;52.102;5.242;2022-09-03T02:05:15;3.4;;;1.8;;
61627;SDS011;55193;52.102;5.242;2022-09-03T02:06:55;4.91;;;2.0;;
61627;SDS011;55193;52.102;5.242;2022-09-03T02:08:33;4.61;;;1.9;;
61627;SDS011;55193;52.102;5.242;2022-09-03T02:11:51;3.9;;;1.9;;
61627;SDS011;55193;52.102;5.242;2022-09-03T02:13:35;2.9;;;1.8;;
61627;SDS011;55193;52.102;5.242;2022-09-03T02:15:15;5.0;;;2.1;;
61627;SDS011;55193;52.102;5.242;2022-09-03T02:16:54;3.4;;;2.1;;
61627;SDS011;55193;52.102;5.242;2022-09-03T02:20:16;3.2;;;1.9;;
61627;SDS011;55193;52.102;5.242;2022-09-03T02:21:57;6.6;;;2.0;;
61627;SDS011;55193;52.102;5.242;2022-09-03T02:23:34;6.6;;;2.0;;
61627;SDS011;55193;52.102;5.242;2022-09-03T02:25:10;4.1;;;2.1;;
61627;SDS011;55193;52.102;5.242;2022-09-03T02:28:25;2.7;;;1.9;;
61627;SDS011;55193;52.102;5.242;2022-09-03T02:30:04;5.0;;;2.0;;
61627;SDS011;55193;52.102;5.242;2022-09-03T02:31:41;5.7;;;1.9;;
61627;SDS011;55193;52.102;5.242;2022-09-03T02:34:54;5.7;;;1.9;;
61627;SDS011;55193;52.102;5.242;2022-09-03T02:36:30;5.9;;;2.1;;
61627;SDS011;55193;52.102;5.242;2022-09-03T02:38:10;2.6;;;2.0;;
61627;SDS011;55193;52.102;5.242;2022-09-03T02:39:50;4.3;;;2.1;;
61627;SDS011;55193;52.102;5.242;2022-09-03T02:43:03;4.5;;;2.0;;
61627;SDS011;55193;52.102;5.242;2022-09-03T02:44:45;3.7;;;2.0;;
61627;SDS011;55193;52.102;5.242;2022-09-03T02:46:28;3.7;;;1.8;;
61627;SDS011;55193;52.102;5.242;2022-09-03T02:48:14;4.91;;;2.21;;
61627;SDS011;55193;52.102;5.242;2022-09-03T02:51:33;4.1;;;2.0;;
61627;SDS011;55193;52.102;5.242;2022-09-03T02:53:11;3.6;;;2.0;;
61627;SDS011;55193;52.102;5.242;2022-09-03T02:54:48;3.1;;;1.9;;
61627;SDS011;55193;52.102;5.242;2022-09-03T02:58:05;5.8;;;2.0;;
61627;SDS011;55193;52.102;5.242;2022-09-03T02:59:43;36.81;;;3.1;;
61627;SDS011;55193;52.102;5.242;2022-09-03T03:01:19;5.0;;;2.0;;
61627;SDS011;55193;52.102;5.242;2022-09-03T03:02:57;4.7;;;2.1;;
61627;SDS011;55193;52.102;5.242;2022-09-03T03:06:09;4.61;;;2.1;;
61627;SDS011;55193;52.102;5.242;2022-09-03T03:07:47;5.6;;;2.1;;
61627;SDS011;55193;52.102;5.242;2022-09-03T03:09:23;3.7;;;2.0;;
61627;SDS011;55193;52.102;5.242;2022-09-03T03:12:38;3.8;;;1.9;;
61627;SDS011;55193;52.102;5.242;2022-09-03T03:14:15;3.7;;;1.9;;
61627;SDS011;55193;52.102;5.242;2022-09-03T03:15:54;3.4;;;2.0;;
61627;SDS011;55193;52.102;5.242;2022-09-03T03:17:31;9.21;;;2.31;;
61627;SDS011;55193;52.102;5.242;2022-09-03T03:20:43;3.1;;;1.9;;
61627;SDS011;55193;52.102;5.242;2022-09-03T03:22:19;3.3;;;1.9;;
61627;SDS011;55193;52.102;5.242;2022-09-03T03:23:55;39.4;;;3.0;;
61627;SDS011;55193;52.102;5.242;2022-09-03T03:27:10;14.5;;;2.5;;
61627;SDS011;55193;52.102;5.242;2022-09-03T03:28:48;3.3;;;1.9;;
61627;SDS011;55193;52.102;5.242;2022-09-03T03:30:25;4.91;;;1.9;;
61627;SDS011;55193;52.102;5.242;2022-09-03T03:32:02;3.2;;;2.0;;
61627;SDS011;55193;52.102;5.242;2022-09-03T03:35:16;4.91;;;2.0;;
61627;SDS011;55193;52.102;5.242;2022-09-03T03:36:52;2.9;;;1.8;;
61627;SDS011;55193;52.102;5.242;2022-09-03T03:38:28;3.3;;;1.8;;
61627;SDS011;55193;52.102;5.242;2022-09-03T03:41:42;3.5;;;1.8;;
61627;SDS011;55193;52.102;5.242;2022-09-03T03:43:18;4.0;;;1.9;;
61627;SDS011;55193;52.102;5.242;2022-09-03T03:44:54;4.7;;;2.0;;
61627;SDS011;55193;52.102;5.242;2022-09-03T03:48:10;2.8;;;1.9;;
61627;SDS011;55193;52.102;5.242;2022-09-03T03:49:46;2.7;;;1.9;;
61627;SDS011;55193;52.102;5.242;2022-09-03T03:51:22;3.7;;;1.8;;
61627;SDS011;55193;52.102;5.242;2022-09-03T03:52:59;3.7;;;2.1;;
61627;SDS011;55193;52.102;5.242;2022-09-03T03:56:12;4.61;;;1.7;;
61627;SDS011;55193;52.102;5.242;2022-09-03T03:57:50;3.2;;;2.0;;
61627;SDS011;55193;52.102;5.242;2022-09-03T03:59:26;4.1;;;1.9;;
61627;SDS011;55193;52.102;5.242;2022-09-03T04:02:41;3.2;;;1.9;;
61627;SDS011;55193;52.102;5.242;2022-09-03T04:04:17;3.8;;;1.9;;
61627;SDS011;55193;52.102;5.242;2022-09-03T04:05:54;4.1;;;2.1;;
61627;SDS011;55193;52.102;5.242;2022-09-03T04:09:07;5.11;;;2.31;;
61627;SDS011;55193;52.102;5.242;2022-09-03T04:10:43;3.4;;;1.9;;
61627;SDS011;55193;52.102;5.242;2022-09-03T04:12:19;3.2;;;1.9;;
61627;SDS011;55193;52.102;5.242;2022-09-03T04:13:55;3.8;;;1.9;;
61627;SDS011;55193;52.102;5.242;2022-09-03T04:17:07;5.11;;;2.0;;
61627;SDS011;55193;52.102;5.242;2022-09-03T04:18:44;2.8;;;1.9;;
61627;SDS011;55193;52.102;5.242;2022-09-03T04:20:21;3.3;;;2.1;;
61627;SDS011;55193;52.102;5.242;2022-09-03T04:23:34;3.9;;;2.0;;
61627;SDS011;55193;52.102;5.242;2022-09-03T04:25:12;4.5;;;2.0;;
61627;SDS011;55193;52.102;5.242;2022-09-03T04:26:49;4.61;;;2.0;;
61627;SDS011;55193;52.102;5.242;2022-09-03T04:30:03;2.7;;;1.8;;
61627;SDS011;55193;52.102;5.242;2022-09-03T04:32:51;5.3;;;2.0;;
61627;SDS011;55193;52.102;5.242;2022-09-03T04:34:28;4.91;;;2.0;;
61627;SDS011;55193;52.102;5.242;2022-09-03T04:36:05;4.5;;;1.7;;
61627;SDS011;55193;52.102;5.242;2022-09-03T04:37:44;4.3;;;2.0;;
61627;SDS011;55193;52.102;5.242;2022-09-03T04:39:21;3.5;;;2.0;;
61627;SDS011;55193;52.102;5.242;2022-09-03T04:42:34;5.11;;;2.1;;
61627;SDS011;55193;52.102;5.242;2022-09-03T04:44:11;3.8;;;1.9;;
61627;SDS011;55193;52.102;5.242;2022-09-03T04:45:46;3.9;;;2.0;;
61627;SDS011;55193;52.102;5.242;2022-09-03T04:47:22;3.8;;;2.21;;
61627;SDS011;55193;52.102;5.242;2022-09-03T04:50:36;3.2;;;2.0;;
61627;SDS011;55193;52.102;5.242;2022-09-03T04:52:12;3.4;;;2.21;;
61627;SDS011;55193;52.102;5.242;2022-09-03T04:53:52;5.0;;;2.5;;
61627;SDS011;55193;52.102;5.242;2022-09-03T04:57:09;5.6;;;2.7;;
61627;SDS011;55193;52.102;5.242;2022-09-03T04:58:46;6.4;;;3.1;;
61627;SDS011;55193;52.102;5.242;2022-09-03T05:00:23;8.6;;;3.4;;
61627;SDS011;55193;52.102;5.242;2022-09-03T05:01:59;8.31;;;3.7;;
61627;SDS011;55193;52.102;5.242;2022-09-03T05:05:12;10.3;;;4.61;;
61627;SDS011;55193;52.102;5.242;2022-09-03T05:06:49;10.5;;;4.3;;
61627;SDS011;55193;52.102;5.242;2022-09-03T05:08:25;7.9;;;4.0;;
61627;SDS011;55193;52.102;5.242;2022-09-03T05:11:42;5.7;;;3.7;;
61627;SDS011;55193;52.102;5.242;2022-09-03T05:13:19;8.31;;;3.9;;
61627;SDS011;55193;52.102;5.242;2022-09-03T05:14:55;9.71;;;3.7;;
61627;SDS011;55193;52.102;5.242;2022-09-03T05:18:07;9.71;;;3.7;;
61627;SDS011;55193;52.102;5.242;2022-09-03T05:19:44;6.0;;;3.1;;
61627;SDS011;55193;52.102;5.242;2022-09-03T05:21:21;5.0;;;3.1;;
61627;SDS011;55193;52.102;5.242;2022-09-03T05:23:00;5.0;;;3.1;;
61627;SDS011;55193;52.102;5.242;2022-09-03T05:26:13;5.6;;;2.6;;
61627;SDS011;55193;52.102;5.242;2022-09-03T05:27:53;5.9;;;2.6;;
61627;SDS011;55193;52.102;5.242;2022-09-03T05:29:29;3.9;;;2.5;;
61627;SDS011;55193;52.102;5.242;2022-09-03T05:32:44;5.0;;;2.7;;
61627;SDS011;55193;52.102;5.242;2022-09-03T05:34:20;5.2;;;2.6;;
61627;SDS011;55193;52.102;5.242;2022-09-03T05:35:59;3.4;;;2.6;;
61627;SDS011;55193;52.102;5.242;2022-09-03T05:37:36;3.8;;;2.6;;
61627;SDS011;55193;52.102;5.242;2022-09-03T05:40:48;3.8;;;2.4;;
61627;SDS011;55193;52.102;5.242;2022-09-03T05:42:27;4.5;;;2.5;;
61627;SDS011;55193;52.102;5.242;2022-09-03T05:44:04;2.8;;;2.4;;
61627;SDS011;55193;52.102;5.242;2022-09-03T05:47:17;3.9;;;2.31;;
61627;SDS011;55193;52.102;5.242;2022-09-03T05:48:53;4.91;;;2.31;;
61627;SDS011;55193;52.102;5.242;2022-09-03T05:50:29;4.91;;;2.21;;
61627;SDS011;55193;52.102;5.242;2022-09-03T05:53:42;4.1;;;2.1;;
61627;SDS011;55193;52.102;5.242;2022-09-03T05:55:20;3.2;;;2.21;;
61627;SDS011;55193;52.102;5.242;2022-09-03T05:56:56;15.1;;;3.7;;
61627;SDS011;55193;52.102;5.242;2022-09-03T05:58:33;4.61;;;2.21;;
61627;SDS011;55193;52.102;5.242;2022-09-03T06:01:48;5.11;;;1.8;;
61627;SDS011;55193;52.102;5.242;2022-09-03T06:03:25;4.5;;;2.1;;
61627;SDS011;55193;52.102;5.242;2022-09-03T06:05:01;3.1;;;1.9;;
61627;SDS011;55193;52.102;5.242;2022-09-03T06:08:15;6.0;;;2.1;;
61627;SDS011;55193;52.102;5.242;2022-09-03T06:09:51;4.3;;;2.0;;
61627;SDS011;55193;52.102;5.242;2022-09-03T06:11:28;2.8;;;1.9;;
61627;SDS011;55193;52.102;5.242;2022-09-03T06:14:42;4.0;;;2.1;;
61627;SDS011;55193;52.102;5.242;2022-09-03T06:16:19;5.2;;;1.9;;
61627;SDS011;55193;52.102;5.242;2022-09-03T06:17:55;9.4;;;2.0;;
61627;SDS011;55193;52.102;5.242;2022-09-03T06:19:31;5.8;;;1.8;;
61627;SDS011;55193;52.102;5.242;2022-09-03T06:22:47;4.8;;;1.8;;
61627;SDS011;55193;52.102;5.242;2022-09-03T06:24:26;6.9;;;2.31;;
61627;SDS011;55193;52.102;5.242;2022-09-03T06:26:03;4.5;;;2.21;;
61627;SDS011;55193;52.102;5.242;2022-09-03T06:29:19;3.5;;;1.9;;
61627;SDS011;55193;52.102;5.242;2022-09-03T06:30:56;4.91;;;2.31;;
61627;SDS011;55193;52.102;5.242;2022-09-03T06:32:34;4.61;;;2.0;;
61627;SDS011;55193;52.102;5.242;2022-09-03T06:34:18;6.6;;;1.9;;
61627;SDS011;55193;52.102;5.242;2022-09-03T06:37:37;2.8;;;1.7;;
61627;SDS011;55193;52.102;5.242;2022-09-03T06:39:14;3.2;;;1.9;;
61627;SDS011;55193;52.102;5.242;2022-09-03T06:40:51;4.5;;;1.9;;
61627;SDS011;55193;52.102;5.242;2022-09-03T06:42:30;4.2;;;1.9;;
61627;SDS011;55193;52.102;5.242;2022-09-03T06:45:53;6.7;;;2.0;;
61627;SDS011;55193;52.102;5.242;2022-09-03T06:47:31;4.1;;;1.8;;
61627;SDS011;55193;52.102;5.242;2022-09-03T06:49:09;2.31;;;1.8;;
61627;SDS011;55193;52.102;5.242;2022-09-03T06:50:52;4.2;;;1.9;;
61627;SDS011;55193;52.102;5.242;2022-09-03T06:54:17;6.1;;;1.8;;
61627;SDS011;55193;52.102;5.242;2022-09-03T06:55:55;5.4;;;1.9;;
61627;SDS011;55193;52.102;5.242;2022-09-03T06:57:32;2.6;;;1.7;;
61627;SDS011;55193;52.102;5.242;2022-09-03T07:00:46;2.7;;;1.7;;
61627;SDS011;55193;52.102;5.242;2022-09-03T07:02:22;4.3;;;1.7;;
61627;SDS011;55193;52.102;5.242;2022-09-03T07:04:00;7.6;;;2.0;;
61627;SDS011;55193;52.102;5.242;2022-09-03T07:05:38;5.11;;;2.0;;
61627;SDS011;55193;52.102;5.242;2022-09-03T07:08:51;10.3;;;1.9;;
61627;SDS011;55193;52.102;5.242;2022-09-03T07:10:28;3.3;;;1.8;;
61627;SDS011;55193;52.102;5.242;2022-09-03T07:12:04;11.5;;;2.31;;
61627;SDS011;55193;52.102;5.242;2022-09-03T07:15:22;7.8;;;2.0;;
61627;SDS011;55193;52.102;5.242;2022-09-03T07:16:58;7.0;;;2.31;;
61627;SDS011;55193;52.102;5.242;2022-09-03T07:18:34;6.2;;;2.0;;
61627;SDS011;55193;52.102;5.242;2022-09-03T07:20:12;3.8;;;1.8;;
61627;SDS011;55193;52.102;5.242;2022-09-03T07:23:25;4.2;;;1.9;;
61627;SDS011;55193;52.102;5.242;2022-09-03T07:25:01;3.6;;;1.8;;
61627;SDS011;55193;52.102;5.242;2022-09-03T07:26:39;2.8;;;1.7;;
61627;SDS011;55193;52.102;5.242;2022-09-03T07:29:52;2.6;;;1.5;;
61627;SDS011;55193;52.102;5.242;2022-09-03T07:31:29;4.61;;;2.0;;
61627;SDS011;55193;52.102;5.242;2022-09-03T07:33:07;3.3;;;1.6;;
61627;SDS011;55193;52.102;5.242;2022-09-03T07:34:44;3.3;;;1.6;;
61627;SDS011;55193;52.102;5.242;2022-09-03T07:37:58;4.61;;;1.8;;
61627;SDS011;55193;52.102;5.242;2022-09-03T07:39:34;5.7;;;1.9;;
61627;SDS011;55193;52.102;5.242;2022-09-03T07:41:11;6.5;;;1.9;;
61627;SDS011;55193;52.102;5.242;2022-09-03T07:44:32;4.61;;;1.8;;
61627;SDS011;55193;52.102;5.242;2022-09-03T07:46:08;3.9;;;1.8;;
61627;SDS011;55193;52.102;5.242;2022-09-03T07:47:45;5.4;;;1.7;;
61627;SDS011;55193;52.102;5.242;2022-09-03T07:49:22;5.6;;;1.8;;
61627;SDS011;55193;52.102;5.242;2022-09-03T07:52:37;5.6;;;1.8;;
61627;SDS011;55193;52.102;5.242;2022-09-03T07:54:13;3.3;;;1.6;;
61627;SDS011;55193;52.102;5.242;2022-09-03T07:55:50;3.4;;;1.5;;
61627;SDS011;55193;52.102;5.242;2022-09-03T07:59:03;6.0;;;1.8;;
61627;SDS011;55193;52.102;5.242;2022-09-03T08:00:40;8.1;;;2.7;;
61627;SDS011;55193;52.102;5.242;2022-09-03T08:02:16;2.9;;;1.8;;
61627;SDS011;55193;52.102;5.242;2022-09-03T08:05:30;3.3;;;1.7;;
61627;SDS011;55193;52.102;5.242;2022-09-03T08:07:07;3.4;;;1.7;;
61627;SDS011;55193;52.102;5.242;2022-09-03T08:08:44;4.3;;;1.7;;
61627;SDS011;55193;52.102;5.242;2022-09-03T08:10:21;4.2;;;1.6;;
61627;SDS011;55193;52.102;5.242;2022-09-03T08:13:33;3.5;;;1.6;;
61627;SDS011;55193;52.102;5.242;2022-09-03T08:15:10;3.6;;;1.5;;
61627;SDS011;55193;52.102;5.242;2022-09-03T08:16:46;3.6;;;1.5;;
61627;SDS011;55193;52.102;5.242;2022-09-03T08:19:59;4.2;;;1.5;;
61627;SDS011;55193;52.102;5.242;2022-09-03T08:21:36;2.9;;;1.5;;
61627;SDS011;55193;52.102;5.242;2022-09-03T08:23:13;2.8;;;1.6;;
61627;SDS011;55193;52.102;5.242;2022-09-03T08:26:25;2.21;;;1.4;;
61627;SDS011;55193;52.102;5.242;2022-09-03T08:28:01;5.3;;;1.8;;
61627;SDS011;55193;52.102;5.242;2022-09-03T08:29:37;5.3;;;1.8;;
61627;SDS011;55193;52.102;5.242;2022-09-03T08:31:14;16.3;;;2.9;;
61627;SDS011;55193;52.102;5.242;2022-09-03T08:34:30;5.6;;;1.5;;
61627;SDS011;55193;52.102;5.242;2022-09-03T08:36:07;3.1;;;1.6;;
61627;SDS011;55193;52.102;5.242;2022-09-03T08:37:48;5.6;;;1.6;;
61627;SDS011;55193;52.102;5.242;2022-09-03T08:41:02;5.11;;;1.9;;
61627;SDS011;55193;52.102;5.242;2022-09-03T08:42:46;5.4;;;1.5;;
61627;SDS011;55193;52.102;5.242;2022-09-03T08:44:39;3.7;;;1.4;;
61627;SDS011;55193;52.102;5.242;2022-09-03T08:46:20;5.8;;;1.6;;
61627;SDS011;55193;52.102;5.242;2022-09-03T08:48:01;3.7;;;1.4;;
61627;SDS011;55193;52.102;5.242;2022-09-03T08:51:26;3.8;;;1.7;;
61627;SDS011;55193;52.102;5.242;2022-09-03T08:53:07;2.1;;;1.5;;
61627;SDS011;55193;52.102;5.242;2022-09-03T08:54:48;2.21;;;1.4;;
61627;SDS011;55193;52.102;5.242;2022-09-03T08:56:28;4.41;;;1.5;;
61627;SDS011;55193;52.102;5.242;2022-09-03T08:59:47;5.8;;;1.6;;
61627;SDS011;55193;52.102;5.242;2022-09-03T09:01:32;4.41;;;1.6;;
61627;SDS011;55193;52.102;5.242;2022-09-03T09:03:23;2.9;;;1.5;;
61627;SDS011;55193;52.102;5.242;2022-09-03T09:05:16;4.41;;;1.5;;
61627;SDS011;55193;52.102;5.242;2022-09-03T09:07:02;5.6;;;1.6;;
61627;SDS011;55193;52.102;5.242;2022-09-03T09:10:40;6.7;;;1.4;;
61627;SDS011;55193;52.102;5.242;2022-09-03T09:12:36;3.3;;;1.5;;
61627;SDS011;55193;52.102;5.242;2022-09-03T09:14:23;3.4;;;1.7;;
61627;SDS011;55193;52.102;5.242;2022-09-03T09:16:11;3.9;;;1.5;;
61627;SDS011;55193;52.102;5.242;2022-09-03T09:18:02;5.5;;;1.5;;
61627;SDS011;55193;52.102;5.242;2022-09-03T09:19:50;4.8;;;1.7;;
61627;SDS011;55193;52.102;5.242;2022-09-03T09:21:46;3.1;;;1.6;;
61627;SDS011;55193;52.102;5.242;2022-09-03T09:25:12;3.7;;;1.5;;
61627;SDS011;55193;52.102;5.242;2022-09-03T09:26:53;4.5;;;1.4;;
61627;SDS011;55193;52.102;5.242;2022-09-03T09:28:35;6.0;;;1.5;;
61627;SDS011;55193;52.102;5.242;2022-09-03T09:30:16;3.6;;;1.5;;
61627;SDS011;55193;52.102;5.242;2022-09-03T09:31:54;5.5;;;1.7;;
61627;SDS011;55193;52.102;5.242;2022-09-03T09:35:09;5.2;;;1.5;;
61627;SDS011;55193;52.102;5.242;2022-09-03T09:36:46;2.5;;;1.6;;
61627;SDS011;55193;52.102;5.242;2022-09-03T09:38:26;5.11;;;1.7;;
61627;SDS011;55193;52.102;5.242;2022-09-03T09:41:42;4.1;;;1.8;;
61627;SDS011;55193;52.102;5.242;2022-09-03T09:43:31;5.7;;;1.5;;
61627;SDS011;55193;52.102;5.242;2022-09-03T09:45:07;3.7;;;1.5;;
61627;SDS011;55193;52.102;5.242;2022-09-03T09:46:45;2.9;;;1.4;;
61627;SDS011;55193;52.102;5.242;2022-09-03T09:50:14;2.4;;;1.4;;
61627;SDS011;55193;52.102;5.242;2022-09-03T09:51:59;4.5;;;1.7;;
61627;SDS011;55193;52.102;5.242;2022-09-03T09:53:40;4.1;;;1.4;;
61627;SDS011;55193;52.102;5.242;2022-09-03T09:55:18;2.0;;;1.4;;
61627;SDS011;55193;52.102;5.242;2022-09-03T09:58:37;4.8;;;1.6;;
61627;SDS011;55193;52.102;5.242;2022-09-03T10:00:15;3.5;;;1.4;;
61627;SDS011;55193;52.102;5.242;2022-09-03T10:02:02;2.9;;;1.4;;
61627;SDS011;55193;52.102;5.242;2022-09-03T10:03:47;1.8;;;1.4;;
61627;SDS011;55193;52.102;5.242;2022-09-03T10:05:26;2.31;;;1.3;;
61627;SDS011;55193;52.102;5.242;2022-09-03T10:09:04;4.3;;;1.5;;
61627;SDS011;55193;52.102;5.242;2022-09-03T10:10:43;2.7;;;1.4;;
61627;SDS011;55193;52.102;5.242;2022-09-03T10:12:24;3.3;;;1.6;;
61627;SDS011;55193;52.102;5.242;2022-09-03T10:14:08;6.1;;;1.6;;
61627;SDS011;55193;52.102;5.242;2022-09-03T10:15:54;6.3;;;1.7;;
61627;SDS011;55193;52.102;5.242;2022-09-03T10:19:25;5.5;;;1.5;;
61627;SDS011;55193;52.102;5.242;2022-09-03T10:21:19;7.9;;;1.8;;
61627;SDS011;55193;52.102;5.242;2022-09-03T10:23:06;6.2;;;1.8;;
61627;SDS011;55193;52.102;5.242;2022-09-03T10:24:52;4.7;;;1.7;;
61627;SDS011;55193;52.102;5.242;2022-09-03T10:26:33;8.81;;;1.5;;
61627;SDS011;55193;52.102;5.242;2022-09-03T10:29:49;4.5;;;1.6;;
61627;SDS011;55193;52.102;5.242;2022-09-03T10:31:31;5.0;;;1.8;;
61627;SDS011;55193;52.102;5.242;2022-09-03T10:33:20;5.2;;;1.6;;
61627;SDS011;55193;52.102;5.242;2022-09-03T10:35:03;4.8;;;1.6;;
61627;SDS011;55193;52.102;5.242;2022-09-03T10:36:55;5.4;;;1.5;;
61627;SDS011;55193;52.102;5.242;2022-09-03T10:40:25;5.9;;;1.6;;
61627;SDS011;55193;52.102;5.242;2022-09-03T10:42:12;3.0;;;1.4;;
61627;SDS011;55193;52.102;5.242;2022-09-03T10:44:19;5.6;;;1.7;;
61627;SDS011;55193;52.102;5.242;2022-09-03T10:46:21;4.8;;;1.6;;
61627;SDS011;55193;52.102;5.242;2022-09-03T10:48:38;7.3;;;1.8;;
61627;SDS011;55193;52.102;5.242;2022-09-03T10:50:25;6.9;;;1.7;;
61627;SDS011;55193;52.102;5.242;2022-09-03T10:52:07;5.8;;;1.5;;
61627;SDS011;55193;52.102;5.242;2022-09-03T10:54:03;3.6;;;1.5;;
61627;SDS011;55193;52.102;5.242;2022-09-03T10:55:56;3.6;;;1.5;;
61627;SDS011;55193;52.102;5.242;2022-09-03T10:59:31;1.7;;;1.5;;
61627;SDS011;55193;52.102;5.242;2022-09-03T11:01:22;2.7;;;1.4;;
61627;SDS011;55193;52.102;5.242;2022-09-03T11:03:11;4.5;;;1.7;;
61627;SDS011;55193;52.102;5.242;2022-09-03T11:05:16;2.8;;;1.5;;
61627;SDS011;55193;52.102;5.242;2022-09-03T11:06:56;2.8;;;1.5;;
61627;SDS011;55193;52.102;5.242;2022-09-03T11:08:38;4.41;;;1.5;;
61627;SDS011;55193;52.102;5.242;2022-09-03T11:10:20;4.61;;;1.4;;
61627;SDS011;55193;52.102;5.242;2022-09-03T11:13:45;4.91;;;1.6;;
61627;SDS011;55193;52.102;5.242;2022-09-03T11:15:25;8.6;;;1.8;;
61627;SDS011;55193;52.102;5.242;2022-09-03T11:17:08;5.4;;;1.4;;
61627;SDS011;55193;52.102;5.242;2022-09-03T11:18:52;1.8;;;1.3;;
61627;SDS011;55193;52.102;5.242;2022-09-03T11:22:09;3.5;;;1.6;;
61627;SDS011;55193;52.102;5.242;2022-09-03T11:23:49;3.3;;;1.5;;
61627;SDS011;55193;52.102;5.242;2022-09-03T11:25:42;15.9;;;2.6;;
61627;SDS011;55193;52.102;5.242;2022-09-03T11:27:30;3.8;;;1.5;;
61627;SDS011;55193;52.102;5.242;2022-09-03T11:29:29;14.1;;;2.6;;
61627;SDS011;55193;52.102;5.242;2022-09-03T11:31:16;2.8;;;1.5;;
61627;SDS011;55193;52.102;5.242;2022-09-03T11:34:44;2.8;;;1.4;;
61627;SDS011;55193;52.102;5.242;2022-09-03T11:36:25;3.7;;;1.6;;
61627;SDS011;55193;52.102;5.242;2022-09-03T11:38:05;4.41;;;1.8;;
61627;SDS011;55193;52.102;5.242;2022-09-03T11:39:57;3.3;;;1.5;;
61627;SDS011;55193;52.102;5.242;2022-09-03T11:41:39;4.8;;;1.4;;
61627;SDS011;55193;52.102;5.242;2022-09-03T11:45:34;4.7;;;1.7;;
61627;SDS011;55193;52.102;5.242;2022-09-03T11:47:14;6.9;;;1.5;;
61627;SDS011;55193;52.102;5.242;2022-09-03T11:48:52;6.5;;;1.8;;
61627;SDS011;55193;52.102;5.242;2022-09-03T11:50:30;2.31;;;1.4;;
61627;SDS011;55193;52.102;5.242;2022-09-03T11:52:09;4.41;;;1.6;;
61627;SDS011;55193;52.102;5.242;2022-09-03T11:55:31;2.8;;;1.6;;
61627;SDS011;55193;52.102;5.242;2022-09-03T11:57:28;8.5;;;1.7;;
61627;SDS011;55193;52.102;5.242;2022-09-03T11:59:22;5.6;;;1.6;;
61627;SDS011;55193;52.102;5.242;2022-09-03T12:01:01;3.1;;;1.6;;
61627;SDS011;55193;52.102;5.242;2022-09-03T12:02:44;2.8;;;1.4;;
61627;SDS011;55193;52.102;5.242;2022-09-03T12:06:13;4.2;;;1.4;;
61627;SDS011;55193;52.102;5.242;2022-09-03T12:08:34;9.1;;;1.7;;
61627;SDS011;55193;52.102;5.242;2022-09-03T12:10:30;2.8;;;1.4;;
61627;SDS011;55193;52.102;5.242;2022-09-03T12:12:18;2.0;;;1.5;;
61627;SDS011;55193;52.102;5.242;2022-09-03T12:14:12;3.5;;;1.5;;
61627;SDS011;55193;52.102;5.242;2022-09-03T12:16:02;4.3;;;1.6;;
61627;SDS011;55193;52.102;5.242;2022-09-03T12:18:32;4.0;;;2.6;;
61627;SDS011;55193;52.102;5.242;2022-09-03T12:20:12;2.21;;;1.4;;
61627;SDS011;55193;52.102;5.242;2022-09-03T12:21:51;3.2;;;1.5;;
61627;SDS011;55193;52.102;5.242;2022-09-03T12:23:29;2.7;;;1.5;;
61627;SDS011;55193;52.102;5.242;2022-09-03T12:26:46;4.61;;;1.8;;
61627;SDS011;55193;52.102;5.242;2022-09-03T12:28:23;4.7;;;1.8;;
61627;SDS011;55193;52.102;5.242;2022-09-03T12:30:12;4.7;;;1.8;;
61627;SDS011;55193;52.102;5.242;2022-09-03T12:31:51;2.0;;;1.8;;
61627;SDS011;55193;52.102;5.242;2022-09-03T12:35:12;4.1;;;1.6;;
61627;SDS011;55193;52.102;5.242;2022-09-03T12:36:52;3.6;;;1.7;;
61627;SDS011;55193;52.102;5.242;2022-09-03T12:38:31;2.9;;;1.5;;
61627;SDS011;55193;52.102;5.242;2022-09-03T12:41:54;3.3;;;1.6;;
61627;SDS011;55193;52.102;5.242;2022-09-03T12:43:38;3.3;;;1.6;;
61627;SDS011;55193;52.102;5.242;2022-09-03T12:45:17;3.9;;;1.5;;
61627;SDS011;55193;52.102;5.242;2022-09-03T12:46:59;4.1;;;1.5;;
61627;SDS011;55193;52.102;5.242;2022-09-03T12:48:36;3.9;;;1.5;;
61627;SDS011;55193;52.102;5.242;2022-09-03T12:51:57;3.7;;;1.9;;
61627;SDS011;55193;52.102;5.242;2022-09-03T12:53:37;3.5;;;1.4;;
61627;SDS011;55193;52.102;5.242;2022-09-03T12:55:17;3.2;;;1.5;;
61627;SDS011;55193;52.102;5.242;2022-09-03T12:57:02;2.7;;;1.5;;
61627;SDS011;55193;52.102;5.242;2022-09-03T13:00:26;4.91;;;1.8;;
61627;SDS011;55193;52.102;5.242;2022-09-03T13:02:10;6.1;;;1.7;;
61627;SDS011;55193;52.102;5.242;2022-09-03T13:03:57;4.3;;;1.5;;